createdAt,value
2018-10-21T00:00:15.865Z,88.4
2018-10-21T00:01:16.536Z,88.4
2018-10-21T00:02:17.277Z,88.6
2018-10-21T00:03:18.011Z,88.4
2018-10-21T00:04:18.614Z,88.4
2018-10-21T00:05:19.285Z,89.1
2018-10-21T00:06:19.950Z,88.1
2018-10-21T00:07:20.622Z,88.8
2018-10-21T00:08:21.290Z,88.7
2018-10-21T00:09:21.959Z,88.6
2018-10-21T00:10:22.627Z,88.5
2018-10-21T00:11:23.295Z,88.4
2018-10-21T00:12:23.967Z,88.5
2018-10-21T00:13:24.634Z,88.2
2018-10-21T00:14:25.302Z,88.3
2018-10-21T00:15:26.093Z,88.3
2018-10-21T00:16:26.637Z,88.2
2018-10-21T00:17:27.311Z,88.1
2018-10-21T00:18:27.975Z,88.3
2018-10-21T00:19:28.644Z,88.5
2018-10-21T00:20:29.314Z,88.2
2018-10-21T00:21:29.978Z,88.1
2018-10-21T00:22:30.648Z,88.2
2018-10-21T00:23:31.320Z,88.4
2018-10-21T00:24:31.986Z,87.8
2018-10-21T00:25:32.651Z,88.6
2018-10-21T00:26:33.322Z,88.4
2018-10-21T00:27:34.029Z,88.3
2018-10-21T00:28:34.701Z,87.6
2018-10-21T00:29:35.379Z,87.7
2018-10-21T00:30:36.038Z,87.8
2018-10-21T00:31:36.751Z,87.7
2018-10-21T00:32:37.464Z,87.7
2018-10-21T00:33:38.137Z,88.0
2018-10-21T00:34:38.801Z,88.0
2018-10-21T00:35:39.469Z,87.9
2018-10-21T00:36:40.139Z,87.8
2018-10-21T00:37:40.808Z,88.1
2018-10-21T00:38:41.477Z,88.2
2018-10-21T00:39:42.145Z,88.4
2018-10-21T00:40:42.811Z,88.7
2018-10-21T00:41:43.481Z,88.8
2018-10-21T00:42:44.150Z,88.9
2018-10-21T00:43:44.818Z,88.3
2018-10-21T00:44:45.530Z,88.4
2018-10-21T00:45:46.197Z,88.6
2018-10-21T00:46:46.871Z,88.4
2018-10-21T00:47:47.579Z,88.4
2018-10-21T00:48:48.248Z,88.4
2018-10-21T00:49:48.915Z,88.2
2018-10-21T00:50:49.583Z,88.6
2018-10-21T00:51:50.296Z,88.5
2018-10-21T00:52:50.972Z,89.0
2018-10-21T00:53:51.633Z,88.2
2018-10-21T00:54:52.301Z,88.2
2018-10-21T00:55:52.969Z,88.3
2018-10-21T00:56:53.646Z,88.2
2018-10-21T00:57:54.307Z,88.1
2018-10-21T00:58:54.976Z,88.1
2018-10-21T00:59:55.644Z,88.3
2018-10-21T01:00:56.315Z,88.3
2018-10-21T01:01:57.026Z,88.3
2018-10-21T01:02:57.748Z,88.2
2018-10-21T01:03:58.451Z,88.1
2018-10-21T01:04:59.066Z,88.2
2018-10-21T01:05:59.733Z,88.3
2018-10-21T01:07:00.403Z,88.3
2018-10-21T01:08:01.071Z,88.4
2018-10-21T01:09:01.754Z,87.9
2018-10-21T01:10:02.408Z,87.8
2018-10-21T01:11:03.075Z,87.8
2018-10-21T01:12:03.747Z,87.7
2018-10-21T01:13:04.411Z,87.8
2018-10-21T01:14:05.082Z,87.9
2018-10-21T01:15:05.762Z,88.1
2018-10-21T01:16:06.454Z,87.9
2018-10-21T01:17:07.120Z,87.6
2018-10-21T01:18:07.790Z,88.5
2018-10-21T01:19:08.461Z,88.3
2018-10-21T01:20:09.127Z,88.3
2018-10-21T01:21:09.864Z,88.5
2018-10-21T01:22:10.464Z,88.3
2018-10-21T01:23:11.134Z,88.2
2018-10-21T01:24:11.802Z,88.0
2018-10-21T01:25:12.471Z,88.4
2018-10-21T01:26:13.138Z,88.1
2018-10-21T01:27:13.830Z,88.3
2018-10-21T01:28:14.474Z,88.3
2018-10-21T01:29:15.145Z,88.1
2018-10-21T01:30:15.812Z,88.1
2018-10-21T01:31:16.480Z,88.3
2018-10-21T01:32:17.151Z,88.5
2018-10-21T01:33:17.819Z,88.4
2018-10-21T01:34:18.488Z,88.3
2018-10-21T01:35:19.165Z,88.2
2018-10-21T01:36:20.251Z,88.4
2018-10-21T01:37:20.576Z,88.2
2018-10-21T01:38:21.260Z,88.1
2018-10-21T01:39:21.910Z,88.3
2018-10-21T01:40:22.582Z,88.2
2018-10-21T01:41:23.254Z,88.6
2018-10-21T01:42:23.914Z,88.3
2018-10-21T01:43:24.582Z,88.1
2018-10-21T01:44:25.250Z,87.8
2018-10-21T01:45:25.917Z,87.6
2018-10-21T01:46:26.585Z,87.6
2018-10-21T01:47:27.253Z,87.9
2018-10-21T01:48:27.923Z,87.8
2018-10-21T01:49:28.593Z,87.8
2018-10-21T01:50:29.260Z,87.6
2018-10-21T01:51:29.927Z,87.9
2018-10-21T01:52:30.646Z,87.9
2018-10-21T01:53:31.267Z,87.8
2018-10-21T01:54:31.935Z,87.9
2018-10-21T01:55:32.602Z,87.9
2018-10-21T01:56:33.271Z,87.9
2018-10-21T01:57:33.937Z,87.8
2018-10-21T01:58:34.613Z,87.6
2018-10-21T01:59:35.276Z,87.3
2018-10-21T02:00:35.944Z,87.8
2018-10-21T02:01:36.613Z,87.1
2018-10-21T02:02:37.281Z,87.1
2018-10-21T02:03:37.950Z,87.3
2018-10-21T02:04:38.618Z,87.0
2018-10-21T02:05:39.289Z,87.9
2018-10-21T02:06:39.999Z,87.8
2018-10-21T02:07:40.669Z,87.6
2018-10-21T02:08:41.338Z,87.9
2018-10-21T02:09:42.007Z,88.0
2018-10-21T02:10:42.675Z,87.8
2018-10-21T02:11:43.354Z,88.3
2018-10-21T02:12:44.059Z,88.4
2018-10-21T02:13:44.725Z,88.3
2018-10-21T02:14:45.394Z,88.1
2018-10-21T02:15:46.064Z,88.1
2018-10-21T02:16:46.730Z,88.3
2018-10-21T02:17:47.400Z,88.5
2018-10-21T02:18:48.067Z,88.1
2018-10-21T02:19:48.736Z,88.2
2018-10-21T02:20:49.404Z,88.2
2018-10-21T02:21:50.072Z,88.5
2018-10-21T02:22:50.740Z,88.5
2018-10-21T02:23:51.409Z,88.3
2018-10-21T02:24:52.078Z,88.3
2018-10-21T02:25:52.746Z,88.4
2018-10-21T02:26:53.467Z,88.2
2018-10-21T02:27:54.084Z,88.1
2018-10-21T02:28:54.756Z,88.1
2018-10-21T02:29:55.422Z,87.9
2018-10-21T02:30:56.090Z,88.3
2018-10-21T02:31:56.802Z,88.4
2018-10-21T02:32:57.510Z,88.5
2018-10-21T02:33:58.145Z,88.4
2018-10-21T02:34:58.808Z,88.1
2018-10-21T02:35:59.480Z,88.3
2018-10-21T02:37:00.144Z,88.1
2018-10-21T02:38:00.813Z,88.1
2018-10-21T02:39:01.489Z,88.1
2018-10-21T02:40:02.188Z,88.1
2018-10-21T02:41:02.855Z,88.2
2018-10-21T02:42:03.526Z,88.2
2018-10-21T02:43:04.193Z,88.2
2018-10-21T02:44:04.860Z,88.2
2018-10-21T02:45:05.584Z,88.0
2018-10-21T02:46:06.199Z,88.2
2018-10-21T02:47:06.867Z,88.3
2018-10-21T02:48:07.534Z,88.3
2018-10-21T02:49:08.203Z,88.5
2018-10-21T02:50:08.872Z,88.2
2018-10-21T02:51:09.569Z,88.3
2018-10-21T02:52:10.208Z,88.2
2018-10-21T02:53:10.884Z,88.1
2018-10-21T02:54:11.590Z,88.6
2018-10-21T02:55:12.258Z,88.3
2018-10-21T02:56:12.926Z,88.4
2018-10-21T02:57:13.665Z,88.5
2018-10-21T02:58:14.299Z,88.8
2018-10-21T02:59:14.972Z,88.4
2018-10-21T03:00:15.683Z,88.9
2018-10-21T03:01:16.358Z,89.4
2018-10-21T03:02:17.069Z,89.3
2018-10-21T03:03:17.803Z,89.2
2018-10-21T03:04:18.402Z,89.1
2018-10-21T03:05:19.071Z,89.6
2018-10-21T03:06:19.737Z,89.6
2018-10-21T03:07:20.404Z,89.7
2018-10-21T03:08:21.076Z,89.2
2018-10-21T03:09:21.785Z,89.4
2018-10-21T03:10:22.411Z,89.2
2018-10-21T03:11:23.083Z,89.4
2018-10-21T03:12:23.750Z,89.4
2018-10-21T03:13:24.418Z,89.8
2018-10-21T03:14:25.131Z,90.0
2018-10-21T03:15:25.843Z,90.1
2018-10-21T03:16:26.512Z,89.7
2018-10-21T03:17:27.180Z,90.5
2018-10-21T03:18:27.944Z,90.2
2018-10-21T03:19:28.519Z,90.4
2018-10-21T03:20:29.184Z,90.6
2018-10-21T03:21:29.852Z,90.9
2018-10-21T03:22:30.532Z,91.0
2018-10-21T03:23:31.193Z,90.9
2018-10-21T03:24:31.857Z,91.1
2018-10-21T03:25:32.525Z,90.9
2018-10-21T03:26:33.191Z,90.8
2018-10-21T03:27:33.869Z,91.8
2018-10-21T03:28:34.527Z,91.3
2018-10-21T03:29:35.197Z,91.4
2018-10-21T03:30:35.870Z,92.0
2018-10-21T03:31:36.533Z,91.8
2018-10-21T03:32:37.203Z,91.9
2018-10-21T03:33:37.925Z,92.0
2018-10-21T03:34:38.575Z,91.9
2018-10-21T03:35:39.244Z,92.4
2018-10-21T03:36:40.258Z,92.1
2018-10-21T03:37:40.863Z,92.2
2018-10-21T03:38:41.530Z,92.6
2018-10-21T03:39:42.199Z,92.7
2018-10-21T03:40:42.867Z,92.7
2018-10-21T03:41:43.537Z,92.7
2018-10-21T03:42:44.204Z,93.1
2018-10-21T03:43:44.872Z,92.7
2018-10-21T03:44:45.541Z,92.9
2018-10-21T03:45:46.208Z,92.8
2018-10-21T03:46:46.878Z,93.3
2018-10-21T03:47:47.594Z,93.4
2018-10-21T03:48:48.264Z,93.0
2018-10-21T03:49:48.932Z,93.2
2018-10-21T03:50:49.605Z,93.0
2018-10-21T03:51:50.267Z,93.1
2018-10-21T03:52:50.936Z,93.4
2018-10-21T03:53:51.612Z,93.8
2018-10-21T03:54:52.270Z,93.7
2018-10-21T03:55:52.938Z,93.8
2018-10-21T03:56:53.650Z,93.3
2018-10-21T03:57:54.331Z,93.9
2018-10-21T03:58:54.986Z,93.8
2018-10-21T03:59:55.653Z,94.0
2018-10-21T04:00:56.331Z,94.0
2018-10-21T04:01:56.988Z,94.0
2018-10-21T04:02:57.657Z,93.9
2018-10-21T04:03:58.329Z,93.9
2018-10-21T04:04:58.992Z,93.9
2018-10-21T04:05:59.662Z,93.5
2018-10-21T04:07:00.328Z,93.3
2018-10-21T04:08:00.996Z,93.9
2018-10-21T04:09:01.666Z,93.9
2018-10-21T04:10:02.337Z,94.2
2018-10-21T04:11:03.001Z,94.6
2018-10-21T04:12:03.668Z,94.4
2018-10-21T04:13:04.339Z,94.6
2018-10-21T04:14:05.051Z,94.2
2018-10-21T04:15:05.718Z,94.1
2018-10-21T04:16:06.405Z,94.5
2018-10-21T04:17:07.088Z,94.6
2018-10-21T04:18:07.755Z,94.3
2018-10-21T04:19:08.424Z,94.6
2018-10-21T04:20:09.092Z,94.5
2018-10-21T04:21:09.760Z,94.1
2018-10-21T04:22:10.512Z,94.3
2018-10-21T04:23:11.102Z,94.1
2018-10-21T04:24:11.765Z,94.4
2018-10-21T04:25:12.433Z,94.4
2018-10-21T04:26:13.101Z,94.4
2018-10-21T04:27:13.772Z,94.0
2018-10-21T04:28:14.492Z,93.9
2018-10-21T04:29:15.107Z,94.2
2018-10-21T04:30:15.778Z,94.4
2018-10-21T04:31:16.486Z,94.5
2018-10-21T04:32:17.154Z,94.5
2018-10-21T04:33:17.873Z,94.4
2018-10-21T04:34:18.580Z,94.4
2018-10-21T04:35:19.284Z,94.7
2018-10-21T04:36:19.915Z,94.3
2018-10-21T04:37:20.585Z,94.7
2018-10-21T04:38:21.295Z,94.4
2018-10-21T04:39:21.971Z,94.2
2018-10-21T04:40:22.631Z,94.1
2018-10-21T04:41:23.298Z,93.9
2018-10-21T04:42:23.967Z,94.0
2018-10-21T04:43:24.632Z,94.1
2018-10-21T04:44:25.301Z,94.4
2018-10-21T04:45:25.971Z,94.5
2018-10-21T04:46:26.705Z,94.5
2018-10-21T04:47:27.382Z,94.5
2018-10-21T04:48:28.052Z,94.3
2018-10-21T04:49:28.762Z,94.7
2018-10-21T04:50:29.430Z,94.7
2018-10-21T04:51:30.098Z,94.7
2018-10-21T04:52:30.766Z,94.7
2018-10-21T04:53:31.435Z,94.8
2018-10-21T04:54:32.102Z,95.0
2018-10-21T04:55:32.824Z,94.2
2018-10-21T04:56:33.483Z,94.3
2018-10-21T04:57:34.198Z,94.3
2018-10-21T04:58:34.864Z,94.5
2018-10-21T04:59:35.531Z,94.7
2018-10-21T05:00:36.240Z,94.6
2018-10-21T05:01:36.874Z,94.7
2018-10-21T05:02:37.535Z,94.7
2018-10-21T05:03:38.201Z,94.4
2018-10-21T05:04:38.888Z,94.2
2018-10-21T05:05:39.540Z,94.4
2018-10-21T05:06:40.205Z,94.3
2018-10-21T05:07:40.908Z,94.5
2018-10-21T05:08:41.543Z,94.5
2018-10-21T05:09:42.211Z,94.5
2018-10-21T05:10:42.875Z,94.4
2018-10-21T05:11:43.542Z,94.0
2018-10-21T05:12:44.212Z,94.0
2018-10-21T05:13:44.878Z,93.2
2018-10-21T05:14:45.547Z,93.9
2018-10-21T05:15:46.214Z,93.6
2018-10-21T05:16:46.882Z,93.4
2018-10-21T05:17:47.548Z,93.5
2018-10-21T05:18:48.216Z,93.2
2018-10-21T05:19:48.885Z,93.0
2018-10-21T05:20:49.600Z,93.0
2018-10-21T05:21:50.265Z,93.0
2018-10-21T05:22:50.935Z,93.0
2018-10-21T05:23:51.667Z,93.3
2018-10-21T05:24:52.274Z,93.7
2018-10-21T05:25:52.938Z,93.2
2018-10-21T05:26:53.607Z,93.5
2018-10-21T05:27:54.280Z,93.3
2018-10-21T05:28:54.952Z,93.5
2018-10-21T05:29:55.660Z,93.1
2018-10-21T05:30:56.328Z,93.5
2018-10-21T05:31:57.008Z,93.7
2018-10-21T05:32:57.669Z,93.5
2018-10-21T05:33:58.397Z,93.5
2018-10-21T05:34:59.084Z,93.8
2018-10-21T05:35:59.752Z,94.1
2018-10-21T05:37:00.421Z,93.9
2018-10-21T05:38:01.182Z,93.7
2018-10-21T05:39:01.758Z,93.6
2018-10-21T05:40:02.437Z,93.3
2018-10-21T05:41:03.097Z,93.4
2018-10-21T05:42:03.766Z,93.4
2018-10-21T05:43:04.437Z,94.0
2018-10-21T05:44:05.105Z,94.2
2018-10-21T05:45:05.772Z,94.3
2018-10-21T05:46:06.502Z,93.3
2018-10-21T05:47:07.174Z,93.6
2018-10-21T05:48:07.783Z,93.9
2018-10-21T05:49:08.453Z,93.4
2018-10-21T05:50:09.124Z,93.7
2018-10-21T05:51:09.794Z,94.0
2018-10-21T05:52:10.497Z,93.6
2018-10-21T05:53:11.134Z,93.6
2018-10-21T05:54:11.806Z,93.6
2018-10-21T05:55:12.476Z,94.0
2018-10-21T05:56:13.145Z,94.0
2018-10-21T05:57:13.814Z,93.5
2018-10-21T05:58:14.542Z,93.4
2018-10-21T05:59:15.157Z,93.5
2018-10-21T06:00:15.825Z,93.5
2018-10-21T06:01:16.497Z,94.0
2018-10-21T06:02:17.169Z,93.6
2018-10-21T06:03:17.851Z,93.8
2018-10-21T06:04:18.632Z,93.8
2018-10-21T06:05:19.228Z,93.2
2018-10-21T06:06:19.906Z,94.1
2018-10-21T06:07:20.614Z,93.4
2018-10-21T06:08:21.294Z,93.8
2018-10-21T06:09:22.000Z,93.2
2018-10-21T06:10:22.672Z,93.2
2018-10-21T06:11:23.343Z,93.2
2018-10-21T06:12:24.015Z,93.4
2018-10-21T06:13:24.686Z,93.2
2018-10-21T06:14:25.361Z,93.8
2018-10-21T06:15:26.027Z,93.5
2018-10-21T06:16:26.699Z,93.3
2018-10-21T06:17:27.369Z,93.3
2018-10-21T06:18:28.039Z,93.1
2018-10-21T06:19:28.712Z,93.3
2018-10-21T06:20:29.382Z,92.9
2018-10-21T06:21:30.055Z,92.7
2018-10-21T06:22:30.725Z,93.0
2018-10-21T06:23:31.414Z,92.7
2018-10-21T06:24:32.072Z,93.0
2018-10-21T06:25:32.743Z,92.3
2018-10-21T06:26:33.417Z,92.2
2018-10-21T06:27:34.094Z,92.5
2018-10-21T06:28:34.761Z,92.3
2018-10-21T06:29:35.434Z,92.0
2018-10-21T06:30:36.107Z,91.3
2018-10-21T06:31:36.793Z,91.4
2018-10-21T06:32:37.545Z,91.6
2018-10-21T06:33:38.264Z,91.5
2018-10-21T06:34:38.889Z,91.7
2018-10-21T06:35:39.563Z,90.7
2018-10-21T06:36:40.277Z,91.3
2018-10-21T06:37:40.908Z,90.4
2018-10-21T06:38:41.581Z,90.6
2018-10-21T06:39:42.255Z,90.4
2018-10-21T06:40:42.929Z,90.7
2018-10-21T06:41:43.600Z,90.7
2018-10-21T06:42:44.313Z,90.6
2018-10-21T06:43:44.991Z,89.9
2018-10-21T06:44:45.664Z,90.1
2018-10-21T06:45:46.409Z,90.0
2018-10-21T06:46:47.047Z,89.9
2018-10-21T06:47:47.723Z,89.8
2018-10-21T06:48:48.392Z,90.2
2018-10-21T06:49:49.068Z,89.8
2018-10-21T06:50:49.740Z,89.4
2018-10-21T06:51:50.413Z,89.1
2018-10-21T06:52:51.088Z,89.1
2018-10-21T06:53:51.768Z,89.1
2018-10-21T06:54:52.476Z,88.8
2018-10-21T06:55:53.154Z,88.3
2018-10-21T06:56:53.902Z,88.5
2018-10-21T06:57:54.497Z,88.6
2018-10-21T06:58:55.171Z,88.2
2018-10-21T06:59:55.852Z,88.2
2018-10-21T07:00:56.516Z,88.2
2018-10-21T07:01:57.208Z,88.4
2018-10-21T07:02:57.908Z,88.4
2018-10-21T07:03:58.618Z,87.9
2018-10-21T07:04:59.321Z,87.6
2018-10-21T07:05:59.966Z,87.5
2018-10-21T07:07:00.640Z,87.8
2018-10-21T07:08:01.316Z,87.2
2018-10-21T07:09:02.035Z,87.3
2018-10-21T07:10:02.736Z,87.0
2018-10-21T07:11:03.379Z,87.2
2018-10-21T07:12:04.065Z,87.0
2018-10-21T07:13:04.772Z,87.2
2018-10-21T07:14:05.445Z,86.9
2018-10-21T07:15:06.171Z,87.1
2018-10-21T07:16:06.820Z,87.2
2018-10-21T07:17:07.465Z,87.1
2018-10-21T07:18:08.139Z,87.3
2018-10-21T07:19:08.812Z,86.7
2018-10-21T07:20:09.496Z,86.5
2018-10-21T07:21:10.211Z,86.4
2018-10-21T07:22:11.027Z,86.4
2018-10-21T07:23:11.600Z,86.1
2018-10-21T07:24:12.273Z,86.2
2018-10-21T07:25:12.948Z,86.3
2018-10-21T07:26:13.622Z,85.9
2018-10-21T07:27:14.297Z,85.8
2018-10-21T07:28:15.135Z,85.3
2018-10-21T07:29:15.732Z,85.5
2018-10-21T07:30:16.418Z,85.2
2018-10-21T07:31:17.086Z,86.0
2018-10-21T07:32:17.757Z,85.5
2018-10-21T07:33:18.431Z,85.4
2018-10-21T07:34:19.161Z,85.5
2018-10-21T07:35:19.781Z,85.1
2018-10-21T07:36:20.485Z,84.8
2018-10-21T07:37:21.133Z,84.7
2018-10-21T07:38:21.808Z,84.1
2018-10-21T07:39:22.530Z,84.3
2018-10-21T07:40:23.206Z,84.5
2018-10-21T07:41:23.925Z,84.5
2018-10-21T07:42:24.602Z,84.0
2018-10-21T07:43:25.279Z,83.7
2018-10-21T07:44:26.006Z,83.6
2018-10-21T07:45:26.681Z,83.5
2018-10-21T07:46:27.354Z,83.4
2018-10-21T07:47:28.040Z,82.6
2018-10-21T07:48:28.749Z,82.4
2018-10-21T07:49:29.468Z,82.7
2018-10-21T07:50:30.148Z,82.2
2018-10-21T07:51:30.864Z,82.0
2018-10-21T07:52:31.540Z,81.9
2018-10-21T07:53:32.262Z,81.7
2018-10-21T07:54:32.928Z,82.0
2018-10-21T07:55:33.623Z,81.9
2018-10-21T07:56:34.312Z,81.6
2018-10-21T07:57:34.994Z,82.0
2018-10-21T07:58:35.666Z,82.1
2018-10-21T07:59:36.339Z,81.4
2018-10-21T08:00:37.023Z,81.7
2018-10-21T08:01:37.769Z,81.7
2018-10-21T08:02:38.455Z,81.4
2018-10-21T08:03:39.131Z,81.1
2018-10-21T08:04:39.811Z,81.7
2018-10-21T08:05:40.483Z,81.2
2018-10-21T08:06:41.159Z,81.8
2018-10-21T08:07:41.836Z,81.7
2018-10-21T08:08:42.584Z,81.5
2018-10-21T08:09:43.185Z,81.4
2018-10-21T08:10:43.862Z,81.3
2018-10-21T08:11:44.536Z,81.3
2018-10-21T08:12:45.214Z,80.9
2018-10-21T08:13:45.888Z,81.0
2018-10-21T08:14:46.732Z,80.9
2018-10-21T08:15:47.284Z,81.3
2018-10-21T08:16:47.961Z,81.4
2018-10-21T08:17:48.637Z,81.0
2018-10-21T08:18:49.314Z,81.3
2018-10-21T08:19:49.990Z,80.7
2018-10-21T08:20:50.668Z,80.8
2018-10-21T08:21:51.344Z,80.9
2018-10-21T08:22:52.052Z,80.8
2018-10-21T08:23:52.699Z,80.3
2018-10-21T08:24:53.378Z,80.7
2018-10-21T08:25:54.050Z,80.7
2018-10-21T08:26:54.728Z,79.9
2018-10-21T08:27:55.439Z,80.1
2018-10-21T08:28:56.080Z,80.2
2018-10-21T08:29:56.766Z,80.2
2018-10-21T08:30:57.435Z,80.0
2018-10-21T08:31:58.110Z,80.0
2018-10-21T08:32:58.788Z,80.4
2018-10-21T08:33:59.493Z,80.4
2018-10-21T08:35:00.140Z,79.8
2018-10-21T08:36:00.827Z,79.7
2018-10-21T08:37:01.493Z,79.6
2018-10-21T08:38:02.169Z,79.2
2018-10-21T08:39:02.846Z,79.2
2018-10-21T08:40:03.605Z,79.2
2018-10-21T08:41:04.199Z,79.2
2018-10-21T08:42:04.877Z,79.3
2018-10-21T08:43:05.556Z,78.8
2018-10-21T08:44:06.232Z,79.0
2018-10-21T08:45:06.954Z,78.9
2018-10-21T08:46:07.705Z,79.2
2018-10-21T08:47:08.346Z,78.8
2018-10-21T08:48:09.023Z,78.2
2018-10-21T08:49:09.730Z,78.6
2018-10-21T08:50:10.378Z,78.2
2018-10-21T08:51:11.056Z,78.0
2018-10-21T08:52:11.795Z,77.7
2018-10-21T08:53:12.411Z,77.6
2018-10-21T08:54:13.089Z,77.1
2018-10-21T08:55:13.819Z,77.0
2018-10-21T08:56:14.484Z,76.7
2018-10-21T08:57:15.124Z,76.3
2018-10-21T08:58:15.849Z,75.5
2018-10-21T08:59:16.479Z,75.3
2018-10-21T09:00:17.157Z,75.4
2018-10-21T09:01:17.893Z,75.1
2018-10-21T09:02:18.512Z,75.5
2018-10-21T09:03:19.203Z,75.0
2018-10-21T09:04:19.913Z,74.6
2018-10-21T09:05:20.591Z,74.8
2018-10-21T09:06:21.267Z,74.9
2018-10-21T09:07:21.950Z,75.0
2018-10-21T09:08:22.626Z,75.2
2018-10-21T09:09:23.308Z,74.8
2018-10-21T09:10:24.103Z,74.6
2018-10-21T09:11:24.707Z,75.0
2018-10-21T09:12:25.381Z,75.0
2018-10-21T09:13:26.068Z,75.2
2018-10-21T09:14:26.782Z,75.2
2018-10-21T09:15:27.475Z,75.5
2018-10-21T09:16:28.149Z,75.0
2018-10-21T09:17:28.854Z,75.2
2018-10-21T09:18:29.577Z,75.4
2018-10-21T09:19:30.298Z,75.2
2018-10-21T09:20:30.974Z,74.4
2018-10-21T09:21:31.653Z,74.2
2018-10-21T09:22:32.332Z,73.3
2018-10-21T09:23:33.061Z,73.4
2018-10-21T09:24:33.688Z,73.2
2018-10-21T09:25:34.367Z,72.5
2018-10-21T09:26:35.045Z,72.4
2018-10-21T09:27:35.723Z,72.3
2018-10-21T09:28:36.403Z,72.3
2018-10-21T09:29:37.082Z,72.2
2018-10-21T09:30:37.762Z,72.0
2018-10-21T09:31:38.490Z,72.2
2018-10-21T09:32:39.161Z,72.4
2018-10-21T09:33:39.887Z,72.8
2018-10-21T09:34:40.606Z,72.8
2018-10-21T09:35:41.284Z,73.1
2018-10-21T09:36:41.984Z,73.0
2018-10-21T09:37:42.687Z,73.3
2018-10-21T09:38:43.363Z,73.1
2018-10-21T09:39:44.055Z,73.7
2018-10-21T09:40:44.768Z,74.0
2018-10-21T09:41:45.447Z,73.8
2018-10-21T09:42:46.127Z,74.1
2018-10-21T09:43:46.930Z,73.9
2018-10-21T09:44:47.521Z,74.1
2018-10-21T09:45:48.203Z,74.1
2018-10-21T09:46:48.879Z,74.0
2018-10-21T09:47:49.571Z,74.1
2018-10-21T09:48:50.281Z,74.5
2018-10-21T09:49:51.016Z,74.4
2018-10-21T09:50:51.680Z,74.5
2018-10-21T09:51:52.363Z,74.6
2018-10-21T09:52:53.037Z,74.6
2018-10-21T09:53:53.714Z,74.1
2018-10-21T09:54:54.468Z,73.8
2018-10-21T09:55:55.123Z,73.9
2018-10-21T09:56:55.816Z,73.5
2018-10-21T09:57:56.501Z,73.7
2018-10-21T09:58:57.159Z,73.3
2018-10-21T09:59:57.838Z,73.9
2018-10-21T10:00:58.584Z,73.8
2018-10-21T10:01:59.195Z,73.7
2018-10-21T10:02:59.918Z,73.6
2018-10-21T10:04:00.706Z,73.4
2018-10-21T10:05:01.297Z,73.6
2018-10-21T10:06:02.203Z,73.2
2018-10-21T10:07:02.924Z,72.6
2018-10-21T10:08:03.563Z,72.7
2018-10-21T10:09:04.266Z,72.5
2018-10-21T10:10:05.008Z,72.3
2018-10-21T10:11:05.681Z,72.4
2018-10-21T10:12:06.361Z,72.2
2018-10-21T10:13:07.104Z,72.5
2018-10-21T10:14:07.720Z,72.4
2018-10-21T10:15:08.398Z,72.1
2018-10-21T10:16:09.104Z,72.4
2018-10-21T10:17:09.755Z,72.4
2018-10-21T10:18:10.433Z,72.4
2018-10-21T10:19:11.182Z,72.3
2018-10-21T10:20:11.794Z,72.1
2018-10-21T10:21:12.518Z,71.9
2018-10-21T10:22:13.251Z,71.7
2018-10-21T10:23:13.894Z,71.6
2018-10-21T10:24:14.560Z,71.8
2018-10-21T10:25:15.358Z,71.4
2018-10-21T10:26:15.993Z,71.9
2018-10-21T10:27:16.718Z,71.4
2018-10-21T10:28:17.488Z,71.6
2018-10-21T10:29:18.077Z,71.6
2018-10-21T10:30:18.802Z,71.9
2018-10-21T10:31:19.579Z,72.0
2018-10-21T10:32:20.191Z,72.1
2018-10-21T10:33:20.885Z,72.4
2018-10-21T10:34:21.594Z,72.7
2018-10-21T10:35:22.268Z,72.7
2018-10-21T10:36:22.953Z,72.6
2018-10-21T10:37:23.623Z,72.7
2018-10-21T10:38:24.299Z,73.2
2018-10-21T10:39:24.978Z,73.4
2018-10-21T10:40:25.656Z,73.2
2018-10-21T10:41:26.333Z,73.9
2018-10-21T10:42:27.013Z,73.7
2018-10-21T10:43:27.746Z,73.9
2018-10-21T10:44:28.457Z,74.2
2018-10-21T10:45:29.137Z,74.4
2018-10-21T10:46:29.816Z,74.7
2018-10-21T10:47:30.496Z,74.4
2018-10-21T10:48:31.172Z,74.3
2018-10-21T10:49:31.892Z,74.7
2018-10-21T10:50:32.573Z,74.6
2018-10-21T10:51:33.294Z,74.3
2018-10-21T10:52:33.974Z,74.7
2018-10-21T10:53:34.652Z,74.8
2018-10-21T10:54:35.332Z,74.8
2018-10-21T10:55:36.009Z,74.3
2018-10-21T10:56:36.688Z,74.8
2018-10-21T10:57:37.413Z,74.8
2018-10-21T10:58:38.094Z,75.2
2018-10-21T10:59:38.848Z,74.8
2018-10-21T11:00:39.462Z,74.4
2018-10-21T11:01:40.171Z,74.7
2018-10-21T11:02:40.849Z,73.9
2018-10-21T11:03:41.531Z,73.9
2018-10-21T11:04:42.209Z,73.9
2018-10-21T11:05:42.885Z,73.9
2018-10-21T11:06:43.563Z,73.8
2018-10-21T11:07:44.244Z,73.7
2018-10-21T11:08:44.975Z,73.5
2018-10-21T11:09:45.645Z,73.7
2018-10-21T11:10:46.341Z,74.0
2018-10-21T11:11:47.090Z,73.7
2018-10-21T11:12:47.773Z,73.0
2018-10-21T11:13:48.498Z,72.6
2018-10-21T11:14:49.320Z,72.5
2018-10-21T11:15:49.898Z,72.3
2018-10-21T11:16:50.579Z,72.3
2018-10-21T11:17:51.293Z,72.3
2018-10-21T11:18:51.982Z,72.1
2018-10-21T11:19:52.661Z,71.7
2018-10-21T11:20:53.341Z,71.4
2018-10-21T11:21:54.048Z,71.8
2018-10-21T11:22:54.804Z,71.4
2018-10-21T11:23:55.379Z,71.7
2018-10-21T11:24:56.135Z,71.4
2018-10-21T11:25:57.031Z,71.5
2018-10-21T11:26:57.765Z,71.7
2018-10-21T11:27:58.751Z,71.6
2018-10-21T11:28:59.429Z,71.6
2018-10-21T11:30:00.125Z,70.8
2018-10-21T11:31:00.832Z,70.9
2018-10-21T11:32:01.513Z,71.1
2018-10-21T11:33:02.259Z,71.2
2018-10-21T11:34:03.034Z,70.9
2018-10-21T11:35:03.708Z,71.0
2018-10-21T11:36:04.374Z,70.6
2018-10-21T11:37:05.147Z,70.3
2018-10-21T11:38:05.771Z,70.3
2018-10-21T11:39:06.451Z,70.3
2018-10-21T11:40:07.216Z,70.2
2018-10-21T11:41:07.810Z,70.3
2018-10-21T11:42:08.489Z,70.2
2018-10-21T11:43:09.215Z,70.4
2018-10-21T11:44:09.917Z,69.6
2018-10-21T11:45:10.613Z,68.9
2018-10-21T11:46:11.377Z,68.8
2018-10-21T11:47:11.976Z,68.8
2018-10-21T11:48:12.653Z,68.8
2018-10-21T11:49:13.436Z,68.8
2018-10-21T11:50:14.060Z,68.8
2018-10-21T11:51:14.738Z,68.9
2018-10-21T11:52:15.657Z,68.7
2018-10-21T11:53:16.141Z,68.6
2018-10-21T11:54:16.822Z,68.7
2018-10-21T11:55:17.580Z,68.1
2018-10-21T11:56:18.218Z,68.1
2018-10-21T11:57:18.916Z,67.8
2018-10-21T11:58:19.626Z,67.8
2018-10-21T11:59:20.407Z,67.9
2018-10-21T12:00:21.076Z,68.2
2018-10-21T12:01:21.758Z,68.7
2018-10-21T12:02:22.436Z,68.7
2018-10-21T12:03:23.115Z,68.6
2018-10-21T12:04:23.802Z,68.8
2018-10-21T12:05:24.520Z,68.8
2018-10-21T12:06:25.200Z,68.8
2018-10-21T12:07:25.880Z,69.1
2018-10-21T12:08:26.560Z,68.8
2018-10-21T12:09:27.238Z,68.6
2018-10-21T12:10:27.918Z,69.0
2018-10-21T12:11:28.596Z,68.5
2018-10-21T12:12:29.302Z,68.9
2018-10-21T12:13:30.011Z,68.5
2018-10-21T12:14:30.722Z,68.1
2018-10-21T12:15:31.411Z,68.3
2018-10-21T12:16:32.082Z,68.6
2018-10-21T12:17:32.761Z,68.6
2018-10-21T12:18:33.487Z,68.6
2018-10-21T12:19:34.167Z,68.6
2018-10-21T12:20:34.893Z,68.9
2018-10-21T12:21:35.623Z,68.1
2018-10-21T12:22:36.355Z,67.2
2018-10-21T12:23:37.086Z,66.6
2018-10-21T12:24:37.692Z,66.6
2018-10-21T12:25:38.466Z,66.8
2018-10-21T12:26:39.093Z,66.9
2018-10-21T12:27:39.777Z,67.2
2018-10-21T12:28:40.495Z,66.5
2018-10-21T12:29:41.173Z,66.8
2018-10-21T12:30:41.852Z,67.0
2018-10-21T12:31:42.533Z,67.1
2018-10-21T12:32:43.211Z,66.7
2018-10-21T12:33:43.936Z,67.0
2018-10-21T12:34:44.656Z,67.5
2018-10-21T12:35:45.337Z,67.6
2018-10-21T12:36:46.014Z,67.9
2018-10-21T12:37:46.692Z,68.0
2018-10-21T12:38:47.370Z,68.0
2018-10-21T12:39:48.050Z,68.6
2018-10-21T12:40:48.726Z,68.6
2018-10-21T12:41:49.406Z,69.6
2018-10-21T12:42:50.085Z,69.0
2018-10-21T12:43:50.762Z,69.8
2018-10-21T12:44:51.491Z,70.0
2018-10-21T12:45:52.212Z,69.7
2018-10-21T12:46:52.918Z,70.3
2018-10-21T12:47:53.819Z,70.4
2018-10-21T12:48:54.505Z,70.2
2018-10-21T12:49:55.184Z,70.5
2018-10-21T12:50:55.898Z,70.5
2018-10-21T12:51:56.585Z,70.3
2018-10-21T12:52:57.268Z,70.1
2018-10-21T12:53:57.965Z,70.5
2018-10-21T12:54:58.648Z,70.5
2018-10-21T12:55:59.339Z,70.8
2018-10-21T12:57:00.020Z,70.7
2018-10-21T12:58:00.711Z,70.3
2018-10-21T12:59:01.378Z,69.6
2018-10-21T13:00:02.058Z,69.3
2018-10-21T13:01:02.806Z,69.1
2018-10-21T13:02:03.544Z,69.0
2018-10-21T13:03:04.176Z,68.9
2018-10-21T13:04:04.884Z,69.0
2018-10-21T13:05:05.544Z,68.5
2018-10-21T13:06:06.294Z,67.8
2018-10-21T13:07:07.023Z,67.9
2018-10-21T13:08:07.694Z,67.6
2018-10-21T13:09:08.417Z,67.4
2018-10-21T13:10:09.099Z,66.8
2018-10-21T13:11:09.788Z,66.2
2018-10-21T13:12:10.486Z,65.9
2018-10-21T13:13:11.190Z,66.0
2018-10-21T13:14:11.860Z,65.6
2018-10-21T13:15:12.537Z,65.5
2018-10-21T13:16:13.273Z,65.5
2018-10-21T13:17:13.897Z,65.9
2018-10-21T13:18:14.576Z,65.9
2018-10-21T13:19:15.305Z,65.5
2018-10-21T13:20:15.934Z,65.3
2018-10-21T13:21:16.613Z,65.1
2018-10-21T13:22:17.402Z,65.1
2018-10-21T13:23:18.010Z,65.3
2018-10-21T13:24:18.733Z,65.2
2018-10-21T13:25:19.517Z,64.8
2018-10-21T13:26:20.143Z,64.8
2018-10-21T13:27:20.850Z,64.5